createdAt,value
2023-05-17T00:04:38.664Z,83.11
2023-05-17T00:14:42.422Z,83.54
2023-05-17T00:24:47.384Z,84.15
2023-05-17T00:34:54.579Z,84.51
2023-05-17T00:44:57.998Z,85.03
2023-05-17T00:55:01.941Z,85.44
2023-05-17T01:05:06.870Z,85.93
2023-05-17T01:15:14.726Z,86.00
2023-05-17T01:25:27.894Z,86.42
2023-05-17T01:35:31.705Z,87.21
2023-05-17T01:45:39.402Z,87.13
2023-05-17T01:55:48.441Z,87.46
2023-05-17T02:05:52.056Z,88.19
2023-05-17T02:16:00.021Z,88.82
2023-05-17T02:26:03.824Z,89.47
2023-05-17T02:36:07.056Z,89.66
2023-05-17T02:46:10.671Z,89.42
2023-05-17T02:56:14.132Z,89.63
2023-05-17T03:06:17.738Z,89.89
2023-05-17T03:16:21.324Z,90.57
2023-05-17T03:26:25.027Z,90.44
2023-05-17T03:36:28.671Z,90.59
2023-05-17T03:46:32.816Z,90.94
2023-05-17T03:56:37.050Z,91.34
2023-05-17T04:06:41.643Z,91.22
2023-05-17T04:16:46.065Z,91.45
2023-05-17T04:26:49.637Z,91.74
2023-05-17T04:36:53.237Z,91.76
2023-05-17T04:46:57.369Z,91.91
2023-05-17T04:57:01.124Z,92.36
2023-05-17T05:07:08.969Z,92.40
2023-05-17T05:17:12.862Z,92.80
2023-05-17T05:27:16.865Z,92.90
2023-05-17T05:37:20.626Z,93.05
2023-05-17T05:47:26.152Z,92.84
2023-05-17T05:57:30.713Z,93.07
2023-05-17T06:07:34.478Z,92.93
2023-05-17T06:17:40.132Z,92.70
2023-05-17T06:27:43.832Z,92.35
2023-05-17T06:37:47.541Z,92.29
2023-05-17T06:47:51.139Z,92.37
2023-05-17T06:57:55.449Z,91.98
2023-05-17T07:07:59.071Z,92.01
2023-05-17T07:18:02.827Z,91.91
2023-05-17T07:28:07.793Z,91.57
2023-05-17T07:38:11.502Z,91.38
2023-05-17T07:48:15.424Z,91.36
2023-05-17T07:58:22.790Z,91.41
2023-05-17T08:08:26.490Z,91.56
2023-05-17T08:18:30.513Z,91.71
2023-05-17T08:28:34.545Z,91.61
2023-05-17T08:38:38.452Z,91.53
2023-05-17T08:48:44.338Z,91.44
2023-05-17T08:58:56.979Z,91.40
2023-05-17T09:09:01.916Z,91.20
2023-05-17T09:19:08.334Z,90.98
2023-05-17T09:29:12.066Z,90.41
2023-05-17T09:39:17.186Z,89.93
2023-05-17T09:49:21.146Z,89.38
2023-05-17T09:59:29.633Z,89.01
2023-05-17T10:09:36.697Z,88.61
2023-05-17T10:19:41.825Z,88.46
2023-05-17T10:29:50.168Z,88.17
2023-05-17T10:39:56.349Z,88.08
2023-05-17T10:50:11.393Z,87.85
2023-05-17T11:00:19.355Z,87.82
2023-05-17T11:10:23.765Z,87.82
2023-05-17T11:20:35.081Z,87.93
2023-05-17T11:30:42.364Z,88.13
2023-05-17T11:40:46.985Z,88.45
2023-05-17T11:50:54.124Z,88.62
2023-05-17T12:00:58.708Z,88.54
2023-05-17T12:11:03.441Z,88.48
2023-05-17T12:21:08.444Z,88.60
2023-05-17T12:31:14.728Z,88.56
2023-05-17T12:41:19.499Z,88.55
2023-05-17T12:51:24.188Z,88.52
2023-05-17T13:01:33.040Z,88.47
2023-05-17T13:11:37.184Z,88.22
2023-05-17T13:21:41.032Z,88.33
2023-05-17T13:31:45.096Z,88.28
2023-05-17T13:41:50.795Z,88.33
2023-05-17T13:51:56.032Z,88.12
2023-05-17T14:01:59.940Z,88.31
2023-05-17T14:12:04.756Z,88.26
2023-05-17T14:22:08.381Z,88.34
2023-05-17T14:42:19.587Z,88.39
2023-05-17T14:52:23.556Z,88.51
2023-05-17T15:02:31.830Z,88.52
2023-05-17T15:12:35.988Z,88.67
2023-05-17T15:22:40.305Z,88.88
2023-05-17T15:42:47.783Z,89.18
2023-05-17T15:52:55.339Z,89.33
2023-05-17T16:02:59.456Z,89.49
2023-05-17T16:13:03.922Z,89.60
2023-05-17T16:23:07.936Z,89.78
2023-05-17T16:33:16.292Z,89.62
2023-05-17T16:43:24.523Z,89.66
2023-05-17T16:53:28.611Z,89.57
2023-05-17T17:03:32.870Z,89.66
2023-05-17T17:13:36.102Z,89.69
2023-05-17T17:23:40.257Z,89.66
2023-05-17T17:43:48.821Z,89.59
2023-05-17T17:53:52.607Z,89.53
2023-05-17T18:03:58.335Z,89.51
2023-05-17T18:14:01.937Z,89.46
2023-05-17T18:24:04.346Z,89.36
2023-05-17T18:34:07.939Z,89.32
2023-05-17T18:44:16.939Z,89.15
2023-05-17T18:54:21.929Z,89.24
2023-05-17T19:04:25.750Z,89.20
2023-05-17T19:14:31.520Z,89.32
2023-05-17T19:24:35.580Z,89.13
2023-05-17T19:34:39.978Z,88.88
2023-05-17T19:44:43.630Z,88.89
2023-05-17T19:54:47.433Z,88.90
2023-05-17T20:04:54.816Z,88.68
2023-05-17T20:15:05.431Z,88.87
2023-05-17T20:25:09.606Z,88.68
2023-05-17T20:35:13.239Z,88.53
2023-05-17T20:45:17.263Z,88.49
2023-05-17T20:55:21.068Z,88.41
2023-05-17T21:05:25.220Z,88.49
2023-05-17T21:15:29.152Z,88.38
2023-05-17T21:25:33.724Z,88.23
2023-05-17T21:35:37.541Z,88.40
2023-05-17T21:45:41.333Z,88.30
2023-05-17T21:56:00.771Z,88.39
2023-05-17T22:06:06.452Z,88.23
2023-05-17T22:16:10.399Z,88.05
2023-05-17T22:26:17.684Z,87.95
2023-05-17T22:36:24.020Z,87.88
2023-05-17T22:46:27.600Z,87.95
2023-05-17T22:56:34.482Z,87.73
2023-05-17T23:06:41.827Z,87.71
2023-05-17T23:16:45.301Z,87.51
2023-05-17T23:26:49.544Z,87.39
2023-05-17T23:36:53.577Z,87.21
2023-05-17T23:46:57.742Z,87.23
2023-05-17T23:57:02.060Z,87.20
